Time;durP1;ratioP1;P1;durP2;ratioP2;P2;SDS_P1;SDS_P2;PMS_P1;PMS_P2;Temp;Humidity;BMP_temperature;BMP_pressure;BME280_temperature;BME280_humidity;BME280_pressure;Samples;Min_cycle;Max_cycle;Signal;HPM_P1;HPM_P2
2022/09/01 00:01:41;;;;;;;3.90;2.73;;;16.70;99.90;;;;;;5031050;28;20758;-73
2022/09/01 00:04:08;;;;;;;3.10;2.20;;;16.70;99.90;;;;;;5032068;28;20466;-74
2022/09/01 00:06:38;;;;;;;2.60;2.40;;;16.70;99.90;;;;;;5031717;28;20432;-73
2022/09/01 00:09:07;;;;;;;2.90;2.57;;;16.70;99.90;;;;;;5032098;28;20895;-73
2022/09/01 00:11:33;;;;;;;3.00;2.30;;;16.60;99.90;;;;;;5032049;28;20851;-74
2022/09/01 00:14:00;;;;;;;3.20;2.33;;;16.50;99.90;;;;;;5031869;28;20464;-72
2022/09/01 00:16:26;;;;;;;4.50;2.73;;;16.50;99.90;;;;;;5031692;28;20815;-73
2022/09/01 00:18:53;;;;;;;3.77;2.17;;;16.50;99.90;;;;;;5030631;28;20414;-72
2022/09/01 00:21:30;;;;;;;2.03;1.73;;;16.40;99.90;;;;;;5031980;28;20446;-73
2022/09/01 00:23:56;;;;;;;2.60;2.40;;;16.40;99.90;;;;;;5031888;28;20425;-72
2022/09/01 00:26:22;;;;;;;4.07;2.60;;;16.40;99.90;;;;;;5031486;28;20505;-73
2022/09/01 00:28:49;;;;;;;3.87;2.20;;;16.30;99.90;;;;;;5033592;28;20683;-72
2022/09/01 00:31:18;;;;;;;2.07;1.87;;;16.30;99.90;;;;;;5035699;28;20402;-75
2022/09/01 00:33:44;;;;;;;2.87;2.43;;;16.30;99.90;;;;;;5034604;28;20438;-72
2022/09/01 00:36:10;;;;;;;2.43;2.23;;;16.30;99.90;;;;;;5035382;28;20470;-73
2022/09/01 00:38:36;;;;;;;3.00;2.43;;;16.20;99.90;;;;;;5035644;28;20195;-73
2022/09/01 00:41:01;;;;;;;3.97;2.37;;;16.30;99.90;;;;;;5035528;28;20251;-73
2022/09/01 00:43:43;;;;;;;2.60;2.40;;;16.20;99.90;;;;;;5035407;28;20188;-73
2022/09/01 00:46:32;;;;;;;2.97;2.67;;;16.20;99.90;;;;;;5035360;28;20183;-73
2022/09/01 00:49:03;;;;;;;2.87;1.90;;;16.10;99.90;;;;;;5034302;28;20568;-73
2022/09/01 00:51:31;;;;;;;2.40;2.20;;;16.10;99.90;;;;;;5035146;28;20433;-73
2022/09/01 00:53:59;;;;;;;2.17;1.97;;;16.10;99.90;;;;;;5034031;28;20970;-73
2022/09/01 00:56:25;;;;;;;2.20;2.00;;;16.10;99.90;;;;;;5050531;28;20449;-73
2022/09/01 00:58:52;;;;;;;2.80;2.47;;;16.10;99.90;;;;;;5035513;28;20398;-73
2022/09/01 01:01:18;;;;;;;2.40;1.97;;;16.10;99.90;;;;;;5035225;28;20160;-73
2022/09/01 01:03:45;;;;;;;2.70;2.23;;;16.20;99.90;;;;;;5035421;28;20426;-73
2022/09/01 01:06:14;;;;;;;5.17;2.80;;;16.20;99.90;;;;;;5035169;28;20918;-73
2022/09/01 01:08:48;;;;;;;2.80;2.53;;;16.20;99.90;;;;;;5033282;28;20426;-73
2022/09/01 01:11:17;;;;;;;4.57;3.07;;;16.10;99.90;;;;;;5035181;28;20464;-73
2022/09/01 01:13:55;;;;;;;6.70;2.50;;;16.10;99.90;;;;;;5033787;28;21021;-73
2022/09/01 01:16:23;;;;;;;2.80;2.60;;;16.00;99.90;;;;;;5034606;28;20810;-73
2022/09/01 01:18:50;;;;;;;3.73;2.80;;;16.00;99.90;;;;;;5033695;28;20410;-73
2022/09/01 01:24:33;;;;;;;7.03;3.23;;;15.90;99.90;;;;;;5034673;28;20486;-73
2022/09/01 01:26:59;;;;;;;2.57;2.10;;;15.80;99.90;;;;;;5034986;28;20441;-73
2022/09/01 01:29:35;;;;;;;2.63;2.23;;;15.80;99.90;;;;;;5034312;28;20431;-73
2022/09/01 01:32:02;;;;;;;3.00;2.70;;;15.70;99.90;;;;;;5033525;28;20258;-73
2022/09/01 01:34:27;;;;;;;2.70;2.20;;;15.70;99.90;;;;;;5034163;28;20826;-72
2022/09/01 01:36:55;;;;;;;3.40;3.10;;;15.70;99.90;;;;;;5034093;28;20462;-74
2022/09/01 01:39:24;;;;;;;2.40;2.20;;;15.70;99.90;;;;;;5033250;28;20681;-73
2022/09/01 01:41:51;;;;;;;2.83;2.23;;;15.60;99.90;;;;;;5034413;28;20472;-72
2022/09/01 01:44:23;;;;;;;3.57;3.20;;;15.60;99.90;;;;;;5034020;28;20940;-72
2022/09/01 01:46:51;;;;;;;3.00;2.20;;;15.50;99.90;;;;;;5034295;28;20464;-72
2022/09/01 01:49:19;;;;;;;3.40;2.93;;;15.50;99.90;;;;;;5034242;28;20417;-72
2022/09/01 01:51:47;;;;;;;9.20;7.50;;;15.50;99.90;;;;;;5033980;28;20434;-72
2022/09/01 01:54:14;;;;;;;6.53;5.07;;;15.50;99.90;;;;;;5034010;28;20791;-73
2022/09/01 01:56:40;;;;;;;3.20;2.90;;;15.40;99.90;;;;;;5034130;28;21037;-73
2022/09/01 01:59:08;;;;;;;2.97;1.90;;;15.40;99.90;;;;;;5032900;28;20497;-73
2022/09/01 02:01:34;;;;;;;2.37;2.17;;;15.40;99.90;;;;;;5033852;28;20399;-73
2022/09/01 02:04:03;;;;;;;2.80;2.20;;;15.40;99.90;;;;;;5033707;28;20949;-73
2022/09/01 02:06:32;;;;;;;3.00;2.43;;;15.40;99.90;;;;;;5033916;28;20915;-73
2022/09/01 02:09:02;;;;;;;2.40;2.20;;;15.30;99.90;;;;;;5034136;28;20399;-74
2022/09/01 02:11:32;;;;;;;3.23;2.53;;;15.20;99.90;;;;;;5032498;28;21187;-73
2022/09/01 02:13:58;;;;;;;7.13;3.13;;;15.20;99.90;;;;;;5033822;28;20422;-73
2022/09/01 02:16:26;;;;;;;3.17;2.37;;;15.10;99.90;;;;;;5033292;28;20830;-73
2022/09/01 02:18:52;;;;;;;5.50;2.23;;;15.00;99.90;;;;;;5033388;28;20461;-74
2022/09/01 02:21:20;;;;;;;2.63;2.43;;;15.00;99.90;;;;;;5033572;28;20432;-74
2022/09/01 02:23:58;;;;;;;4.03;2.80;;;15.00;99.90;;;;;;5033155;28;20441;-74
2022/09/01 02:26:28;;;;;;;3.30;3.10;;;14.90;99.90;;;;;;5033168;28;20483;-74
2022/09/01 02:28:54;;;;;;;4.73;2.40;;;14.90;99.90;;;;;;5033288;28;20409;-74
2022/09/01 02:31:21;;;;;;;5.80;2.50;;;14.90;99.90;;;;;;5033070;28;20410;-74
2022/09/01 02:33:47;;;;;;;2.73;2.20;;;14.80;99.90;;;;;;5033158;28;20186;-73
2022/09/01 02:36:16;;;;;;;3.33;2.07;;;14.80;99.90;;;;;;5032485;28;20450;-74
2022/09/01 02:38:43;;;;;;;4.27;2.80;;;14.80;99.90;;;;;;5033192;28;20167;-73
2022/09/01 02:41:11;;;;;;;2.60;2.40;;;14.80;99.90;;;;;;5033336;28;20621;-73
2022/09/01 02:43:38;;;;;;;3.90;2.50;;;14.70;99.90;;;;;;5033230;28;20422;-74
2022/09/01 02:46:05;;;;;;;6.73;2.30;;;14.70;99.90;;;;;;5031440;28;20781;-74
2022/09/01 02:48:37;;;;;;;2.60;2.10;;;14.70;99.90;;;;;;5032015;28;20954;-73
2022/09/01 02:51:05;;;;;;;4.20;2.13;;;14.70;99.90;;;;;;5032060;28;20449;-74
2022/09/01 02:53:33;;;;;;;9.87;6.00;;;14.70;99.90;;;;;;5031643;28;20430;-74
2022/09/01 02:56:01;;;;;;;3.40;3.10;;;14.80;99.90;;;;;;5032410;28;20987;-73
2022/09/01 02:58:27;;;;;;;4.30;3.33;;;14.80;99.90;;;;;;5032687;28;20403;-74
2022/09/01 03:00:55;;;;;;;4.10;3.00;;;14.80;99.90;;;;;;5033070;28;20395;-74
2022/09/01 03:03:21;;;;;;;4.07;2.50;;;14.80;99.90;;;;;;5032644;28;20552;-74
2022/09/01 03:05:51;;;;;;;5.23;3.03;;;14.90;99.90;;;;;;5032206;28;20505;-74
2022/09/01 03:08:16;;;;;;;2.97;2.67;;;14.90;99.90;;;;;;5032389;28;20187;-74
2022/09/01 03:10:45;;;;;;;3.97;2.73;;;14.80;99.90;;;;;;5031345;28;20406;-74
2022/09/01 03:13:17;;;;;;;2.77;2.57;;;14.80;99.90;;;;;;5032414;28;20194;-74
2022/09/01 03:15:43;;;;;;;3.30;2.10;;;14.80;99.90;;;;;;5032290;28;20438;-74
2022/09/01 03:18:11;;;;;;;2.50;2.10;;;14.80;99.90;;;;;;5031203;28;20822;-74
2022/09/01 03:20:42;;;;;;;3.30;3.00;;;14.80;99.90;;;;;;5031077;28;20513;-74
2022/09/01 03:23:09;;;;;;;3.33;3.03;;;14.80;99.90;;;;;;5031739;28;20431;-73
2022/09/01 03:25:35;;;;;;;25.80;16.37;;;14.80;99.90;;;;;;5031997;28;20419;-73
2022/09/01 03:28:02;;;;;;;11.20;7.47;;;14.80;99.90;;;;;;5032327;28;20486;-73
2022/09/01 03:30:32;;;;;;;5.17;4.63;;;14.80;99.90;;;;;;5032198;28;20915;-73
2022/09/01 03:33:00;;;;;;;3.47;3.13;;;14.80;99.90;;;;;;5031994;28;21122;-72
2022/09/01 03:35:27;;;;;;;3.40;3.07;;;14.80;99.90;;;;;;5031687;28;20911;-73
2022/09/01 03:37:57;;;;;;;4.70;3.10;;;14.80;99.90;;;;;;5032064;28;20406;-73
2022/09/01 03:40:26;;;;;;;2.20;2.00;;;14.80;99.90;;;;;;5032075;28;20410;-73
2022/09/01 03:42:52;;;;;;;3.90;2.93;;;14.80;99.90;;;;;;5031962;28;20398;-73
2022/09/01 03:45:19;;;;;;;3.40;3.07;;;14.80;99.90;;;;;;5030121;28;20426;-73
2022/09/01 03:47:45;;;;;;;6.87;3.00;;;14.80;99.90;;;;;;5031773;28;20506;-73
2022/09/01 03:50:19;;;;;;;2.93;2.23;;;14.70;99.90;;;;;;5032187;28;20437;-74
2022/09/01 03:52:51;;;;;;;3.00;2.53;;;14.70;99.90;;;;;;5032445;28;20402;-73
2022/09/01 03:55:22;;;;;;;3.67;2.50;;;14.70;99.90;;;;;;5030828;28;20418;-73
2022/09/01 03:57:52;;;;;;;4.00;2.90;;;14.60;99.90;;;;;;5032191;28;20422;-73
2022/09/01 04:00:21;;;;;;;3.73;2.70;;;14.60;99.90;;;;;;5032190;28;20959;-73
2022/09/01 04:02:49;;;;;;;3.47;3.17;;;14.60;99.90;;;;;;5031825;28;20407;-73
2022/09/01 04:05:17;;;;;;;3.00;2.63;;;14.60;99.90;;;;;;5035584;28;20417;-74
2022/09/01 04:07:44;;;;;;;3.10;2.63;;;14.50;99.90;;;;;;5035921;28;20409;-73
2022/09/01 04:10:10;;;;;;;3.20;2.90;;;14.50;99.90;;;;;;5035638;28;20418;-73
2022/09/01 04:12:37;;;;;;;3.70;2.37;;;14.50;99.90;;;;;;5035863;28;20891;-74
2022/09/01 04:15:04;;;;;;;5.33;2.50;;;14.50;99.90;;;;;;5035433;28;20191;-74
2022/09/01 04:20:18;;;;;;;2.47;2.27;;;14.40;99.90;;;;;;5035894;28;20404;-73
2022/09/01 04:22:46;;;;;;;3.90;2.73;;;14.40;99.90;;;;;;5035588;28;20493;-73
2022/09/01 04:25:12;;;;;;;3.57;2.50;;;14.40;99.90;;;;;;5034939;28;20428;-73
2022/09/01 04:27:39;;;;;;;2.63;2.20;;;14.30;99.90;;;;;;5035368;28;20476;-72
2022/09/01 04:30:09;;;;;;;2.90;2.60;;;14.30;99.90;;;;;;5050863;28;20763;-74
2022/09/01 04:32:36;;;;;;;10.70;3.40;;;14.20;99.90;;;;;;5035833;28;20402;-73
2022/09/01 04:35:03;;;;;;;4.07;3.27;;;14.20;99.90;;;;;;5035336;28;20468;-74
2022/09/01 04:37:29;;;;;;;2.47;2.27;;;14.10;99.90;;;;;;5035191;28;20469;-73
2022/09/01 04:39:55;;;;;;;5.63;3.33;;;14.10;99.90;;;;;;5035567;28;20398;-73
2022/09/01 04:42:22;;;;;;;4.10;3.07;;;14.00;99.90;;;;;;5035457;28;20398;-73
2022/09/01 04:44:49;;;;;;;3.40;3.10;;;14.00;99.90;;;;;;5034845;28;20974;-73
2022/09/01 04:47:18;;;;;;;2.90;2.17;;;14.00;99.90;;;;;;5035146;28;20406;-73
2022/09/01 04:49:47;;;;;;;2.70;2.50;;;13.90;99.90;;;;;;5035184;28;20414;-72
2022/09/01 04:52:13;;;;;;;4.03;2.73;;;13.90;99.90;;;;;;5034794;28;20438;-73
2022/09/01 04:54:38;;;;;;;4.57;3.50;;;13.90;99.90;;;;;;5034451;28;20428;-73
2022/09/01 04:57:05;;;;;;;2.90;2.60;;;13.90;99.90;;;;;;5034888;28;20992;-73
2022/09/01 04:59:32;;;;;;;3.70;2.77;;;13.90;99.90;;;;;;5034840;28;20233;-73
2022/09/01 05:01:59;;;;;;;5.13;3.40;;;13.90;99.90;;;;;;5034723;28;20428;-73
2022/09/01 05:04:28;;;;;;;3.20;2.90;;;13.90;99.90;;;;;;5034598;28;20426;-73
2022/09/01 05:07:00;;;;;;;4.00;3.00;;;13.90;99.90;;;;;;5034732;28;20418;-73
2022/09/01 05:09:31;;;;;;;4.60;3.43;;;13.90;99.90;;;;;;5034699;28;20496;-73
2022/09/01 05:12:07;;;;;;;4.77;2.67;;;13.90;99.90;;;;;;5034562;28;20406;-74
2022/09/01 05:14:33;;;;;;;3.87;3.33;;;13.90;99.90;;;;;;5033622;28;20421;-74
2022/09/01 05:16:59;;;;;;;6.60;3.40;;;13.90;99.90;;;;;;5034431;28;20460;-73
2022/09/01 05:19:27;;;;;;;4.37;3.23;;;13.90;99.90;;;;;;5034403;28;20191;-73
2022/09/01 05:21:57;;;;;;;3.60;2.83;;;13.90;99.90;;;;;;5034261;28;20163;-73
2022/09/01 05:24:28;;;;;;;3.77;3.00;;;14.00;99.90;;;;;;5034058;28;20454;-74
2022/09/01 05:26:55;;;;;;;4.20;3.50;;;14.00;99.90;;;;;;5034469;28;20406;-73
2022/09/01 05:29:20;;;;;;;3.03;2.80;;;14.10;99.90;;;;;;5034450;28;20789;-73
2022/09/01 05:31:47;;;;;;;3.30;2.90;;;14.20;99.90;;;;;;5034281;28;20497;-73
2022/09/01 05:34:25;;;;;;;4.53;3.03;;;14.20;99.90;;;;;;5033895;28;20196;-74
2022/09/01 05:36:50;;;;;;;3.07;2.77;;;14.30;99.90;;;;;;5034338;28;20445;-74
2022/09/01 05:39:16;;;;;;;5.57;3.73;;;14.50;99.90;;;;;;5034430;28;20409;-73
2022/09/01 05:41:41;;;;;;;5.40;3.57;;;14.60;99.90;;;;;;5034505;28;20682;-73
2022/09/01 05:44:10;;;;;;;3.90;3.40;;;14.80;99.90;;;;;;5034261;28;20270;-73
2022/09/01 05:46:38;;;;;;;3.67;3.10;;;15.00;99.90;;;;;;5034158;28;20532;-73
2022/09/01 05:49:05;;;;;;;3.87;3.30;;;15.30;99.90;;;;;;5033998;28;20445;-74
2022/09/01 05:51:33;;;;;;;8.33;3.60;;;15.60;99.90;;;;;;5034206;28;20422;-73
2022/09/01 05:53:58;;;;;;;3.70;3.20;;;15.80;99.90;;;;;;5034111;28;20509;-73
2022/09/01 05:56:29;;;;;;;3.40;3.10;;;16.10;99.90;;;;;;5033607;28;20577;-73
2022/09/01 05:58:58;;;;;;;3.03;2.70;;;16.40;99.90;;;;;;5033947;28;20579;-73
2022/09/01 06:01:26;;;;;;;3.93;2.43;;;16.70;99.90;;;;;;5033582;28;20438;-73
2022/09/01 06:03:54;;;;;;;3.00;2.43;;;17.10;99.90;;;;;;5033574;28;20425;-73
2022/09/01 06:06:25;;;;;;;4.97;3.03;;;17.60;99.90;;;;;;5033696;28;20767;-73
2022/09/01 06:08:52;;;;;;;4.10;2.73;;;18.20;99.90;;;;;;5033822;28;20441;-73
2022/09/01 06:11:18;;;;;;;2.50;2.10;;;18.80;99.90;;;;;;5033421;28;20430;-73
2022/09/01 06:13:46;;;;;;;12.53;2.67;;;19.40;99.90;;;;;;5033696;28;20414;-73
2022/09/01 06:16:14;;;;;;;2.50;2.30;;;20.00;99.90;;;;;;5033070;28;20449;-72
2022/09/01 06:18:42;;;;;;;2.40;2.20;;;20.50;99.90;;;;;;5033547;28;20414;-72
2022/09/01 06:21:13;;;;;;;3.60;2.73;;;21.10;99.90;;;;;;5033569;28;20832;-72
2022/09/01 06:23:39;;;;;;;3.17;2.53;;;21.60;99.90;;;;;;5033600;28;20476;-71
2022/09/01 06:26:07;;;;;;;3.00;2.13;;;22.20;99.90;;;;;;5032346;28;20422;-72
2022/09/01 06:28:33;;;;;;;2.83;2.50;;;22.80;99.90;;;;;;5033303;28;20429;-72
2022/09/01 06:30:59;;;;;;;5.47;2.23;;;23.30;99.90;;;;;;5032376;28;20930;-73
2022/09/01 06:33:25;;;;;;;2.57;2.37;;;23.80;99.90;;;;;;5033216;28;20206;-73
2022/09/01 06:35:52;;;;;;;2.10;1.70;;;24.30;99.90;;;;;;5032838;28;20446;-73
2022/09/01 06:38:18;;;;;;;2.47;1.90;;;24.80;99.90;;;;;;5032300;28;20193;-73
2022/09/01 06:40:45;;;;;;;2.33;2.10;;;25.20;99.90;;;;;;5033368;28;20487;-73
2022/09/01 06:43:15;;;;;;;2.00;1.77;;;25.70;95.60;;;;;;5033041;28;20438;-73
2022/09/01 06:45:43;;;;;;;2.13;1.53;;;26.20;83.30;;;;;;5033007;28;20406;-73
2022/09/01 06:48:14;;;;;;;2.13;1.93;;;26.40;79.40;;;;;;5032920;28;20414;-73
2022/09/01 06:50:40;;;;;;;2.63;1.93;;;26.20;73.00;;;;;;5032908;28;20520;-74
2022/09/01 06:53:12;;;;;;;1.97;1.63;;;26.00;73.80;;;;;;5031547;28;20530;-73
2022/09/01 06:55:40;;;;;;;5.60;1.90;;;25.70;73.60;;;;;;5032212;28;20317;-73
2022/09/01 06:58:08;;;;;;;2.80;1.60;;;25.30;73.80;;;;;;5032540;28;20410;-73
2022/09/01 07:00:38;;;;;;;2.73;2.00;;;24.90;76.20;;;;;;5032748;28;20438;-72
2022/09/01 07:03:07;;;;;;;2.30;2.03;;;24.40;84.10;;;;;;5032860;28;20422;-72
2022/09/01 07:05:33;;;;;;;2.53;1.87;;;24.00;92.80;;;;;;5032587;28;20426;-72
2022/09/01 07:07:58;;;;;;;3.90;2.40;;;23.90;98.50;;;;;;5032506;28;20433;-73
2022/09/01 07:10:26;;;;;;;2.57;2.07;;;24.30;91.40;;;;;;5031071;28;20671;-73
2022/09/01 07:12:54;;;;;;;1.93;1.70;;;24.90;92.60;;;;;;5032433;28;20164;-73
2022/09/01 07:15:21;;;;;;;1.90;1.60;;;25.50;82.00;;;;;;5032251;28;20796;-73
2022/09/01 07:17:52;;;;;;;5.23;2.47;;;26.00;75.80;;;;;;5032618;28;21000;-73
2022/09/01 07:20:20;;;;;;;2.30;1.60;;;26.40;70.20;;;;;;5032241;28;20438;-73
2022/09/01 07:22:46;;;;;;;3.20;1.93;;;27.00;66.30;;;;;;5032114;28;20418;-73
2022/09/01 07:25:13;;;;;;;3.00;2.50;;;27.60;61.80;;;;;;5032063;28;20418;-73
2022/09/01 07:27:40;;;;;;;2.40;2.20;;;28.30;59.10;;;;;;5032496;28;20437;-73
2022/09/01 07:30:08;;;;;;;2.37;2.00;;;28.90;56.00;;;;;;5032655;28;20407;-73
2022/09/01 07:32:35;;;;;;;2.60;2.40;;;29.70;53.80;;;;;;5032578;28;20407;-73
2022/09/01 07:35:03;;;;;;;1.67;1.57;;;30.20;52.30;;;;;;5031973;28;20438;-72
2022/09/01 07:37:30;;;;;;;2.10;1.90;;;30.50;50.50;;;;;;5032267;28;20446;-72
2022/09/01 07:39:55;;;;;;;3.00;2.00;;;30.30;50.30;;;;;;5032477;28;20463;-72
2022/09/01 07:42:21;;;;;;;1.93;1.67;;;29.70;51.90;;;;;;5032632;28;20477;-73
2022/09/01 07:44:47;;;;;;;2.80;1.90;;;29.60;51.50;;;;;;5031967;28;20222;-72
2022/09/01 07:47:14;;;;;;;2.20;1.60;;;29.60;52.40;;;;;;5032405;28;20226;-72
2022/09/01 07:49:40;;;;;;;3.80;1.97;;;29.70;52.20;;;;;;5033006;28;20640;-72
2022/09/01 07:52:06;;;;;;;2.57;1.80;;;29.70;50.30;;;;;;5032494;28;20421;-72
2022/09/01 07:54:34;;;;;;;2.67;1.73;;;29.30;49.70;;;;;;5031985;28;20207;-72
2022/09/01 07:57:00;;;;;;;2.37;1.80;;;28.80;50.90;;;;;;5032230;28;20870;-73
2022/09/01 07:59:27;;;;;;;2.30;1.87;;;28.30;53.00;;;;;;5032224;28;20415;-72
2022/09/01 08:01:52;;;;;;;4.20;1.57;;;27.90;53.80;;;;;;5032055;28;20164;-72
2022/09/01 08:04:21;;;;;;;1.77;1.50;;;27.70;54.10;;;;;;5031652;28;20444;-72
2022/09/01 08:06:47;;;;;;;1.43;1.30;;;27.40;52.80;;;;;;5031906;28;20599;-72
2022/09/01 08:09:13;;;;;;;4.57;1.70;;;26.70;53.10;;;;;;5032040;28;20410;-72
2022/09/01 08:11:38;;;;;;;1.73;1.30;;;26.10;56.40;;;;;;5032107;28;20442;-72
2022/09/01 08:14:04;;;;;;;2.90;1.60;;;25.70;57.50;;;;;;5031996;28;20207;-72
2022/09/01 08:16:30;;;;;;;2.40;1.30;;;25.40;57.80;;;;;;5031664;28;20199;-72
2022/09/01 08:18:57;;;;;;;1.97;1.30;;;25.30;59.00;;;;;;5032038;28;20175;-72
2022/09/01 08:21:24;;;;;;;1.67;1.50;;;25.00;59.20;;;;;;5031887;28;20783;-72
2022/09/01 08:23:52;;;;;;;2.47;1.73;;;25.10;62.70;;;;;;5031933;28;20984;-73
2022/09/01 08:26:22;;;;;;;2.00;1.70;;;25.60;62.00;;;;;;5029193;28;20425;-73
2022/09/01 08:28:48;;;;;;;2.30;1.40;;;26.60;60.60;;;;;;5031086;28;20452;-72
2022/09/01 08:31:17;;;;;;;2.40;1.10;;;28.20;56.40;;;;;;5031786;28;20406;-72
2022/09/01 08:33:44;;;;;;;1.77;1.43;;;29.90;54.10;;;;;;5031777;28;20187;-73
2022/09/01 08:36:11;;;;;;;1.97;1.60;;;31.60;50.50;;;;;;5031920;28;20454;-73
2022/09/01 08:38:38;;;;;;;1.97;1.33;;;33.10;46.00;;;;;;5032778;28;20413;-73
2022/09/01 08:41:15;;;;;;;1.77;1.67;;;34.80;43.10;;;;;;5032022;28;20501;-73
2022/09/01 08:44:21;;;;;;;3.73;1.73;;;36.10;43.20;;;;;;5032723;28;20414;-73
2022/09/01 08:46:53;;;;;;;1.97;1.50;;;37.70;38.00;;;;;;5032679;28;20416;-73
2022/09/01 08:49:23;;;;;;;1.57;1.47;;;38.90;34.60;;;;;;5033520;28;20460;-73
2022/09/01 08:51:59;;;;;;;1.80;1.70;;;39.10;33.70;;;;;;5036125;28;20417;-73
2022/09/01 08:54:39;;;;;;;2.03;1.83;;;39.30;34.00;;;;;;5035251;28;20429;-73
2022/09/01 08:57:10;;;;;;;1.63;1.43;;;40.00;33.30;;;;;;5036156;28;20419;-73
2022/09/01 08:59:36;;;;;;;3.30;1.80;;;40.80;31.70;;;;;;5034733;28;20441;-73
2022/09/01 09:02:13;;;;;;;1.80;1.70;;;41.00;30.30;;;;;;5035397;28;20398;-73
2022/09/01 09:05:26;;;;;;;1.93;1.60;;;41.60;30.50;;;;;;5034997;28;20230;-73
2022/09/01 09:07:54;;;;;;;2.37;2.00;;;41.60;30.00;;;;;;5030281;28;20475;-73
2022/09/01 09:10:25;;;;;;;2.10;1.90;;;42.40;29.90;;;;;;5035139;28;20776;-73
2022/09/01 09:13:01;;;;;;;2.20;2.00;;;43.10;29.20;;;;;;5034946;28;20394;-73
2022/09/01 09:15:38;;;;;;;2.50;2.20;;;43.80;28.40;;;;;;5034798;28;20399;-73
2022/09/01 09:18:39;;;;;;;3.40;3.07;;;44.60;27.70;;;;;;5035092;28;20430;-73
2022/09/01 09:21:43;;;;;;;2.60;2.40;;;45.00;26.60;;;;;;5034589;28;20414;-73
2022/09/01 09:24:46;;;;;;;1.80;1.70;;;45.00;26.10;;;;;;5034140;28;20420;-72
2022/09/01 09:27:16;;;;;;;3.37;1.80;;;44.50;26.90;;;;;;5035018;28;20422;-72
2022/09/01 09:29:41;;;;;;;2.47;1.83;;;44.30;26.00;;;;;;5035412;28;20966;-72
2022/09/01 09:32:09;;;;;;;1.70;1.60;;;44.30;25.80;;;;;;5035335;28;20464;-72
2022/09/01 09:34:41;;;;;;;1.83;1.73;;;44.60;25.80;;;;;;5034215;28;20597;-72
2022/09/01 09:37:18;;;;;;;2.30;2.10;;;45.00;25.40;;;;;;5014815;28;20429;-72
2022/09/01 09:39:44;;;;;;;1.83;1.73;;;44.80;25.20;;;;;;5015217;28;20403;-72
2022/09/01 09:42:12;;;;;;;1.93;1.83;;;44.50;26.70;;;;;;5015304;28;20804;-73
2022/09/01 09:44:49;;;;;;;3.60;1.70;;;44.70;26.30;;;;;;5014837;28;20206;-72
2022/09/01 09:47:42;;;;;;;1.87;1.77;;;45.20;25.90;;;;;;5014907;28;20378;-72
2022/09/01 09:50:20;;;;;;;3.13;1.93;;;44.90;25.70;;;;;;5028743;28;20429;-73
2022/09/01 09:52:46;;;;;;;1.90;1.70;;;44.80;25.30;;;;;;5034447;28;20391;-72
2022/09/01 09:55:27;;;;;;;1.50;1.40;;;44.90;25.20;;;;;;5034047;28;20407;-72
2022/09/01 09:57:58;;;;;;;1.63;1.53;;;44.50;25.30;;;;;;5034218;28;20461;-72
2022/09/01 10:00:32;;;;;;;3.30;3.00;;;44.10;25.10;;;;;;5034161;28;20376;-72
2022/09/01 10:03:08;;;;;;;2.30;2.10;;;44.90;26.00;;;;;;5034010;28;20391;-72
2022/09/01 10:05:42;;;;;;;2.10;1.90;;;45.70;26.20;;;;;;5033953;28;20376;-72
2022/09/01 10:08:13;;;;;;;1.63;1.50;;;46.80;24.40;;;;;;5034593;28;20379;-72
2022/09/01 10:10:47;;;;;;;2.77;1.70;;;47.10;24.30;;;;;;5034144;28;20415;-72
2022/09/01 10:13:20;;;;;;;1.50;1.40;;;47.30;24.00;;;;;;5032234;28;20438;-72
2022/09/01 10:15:51;;;;;;;2.93;2.40;;;47.10;23.00;;;;;;5033945;28;20534;-72
2022/09/01 10:18:20;;;;;;;3.00;1.97;;;46.20;23.40;;;;;;5033948;28;20408;-72
2022/09/01 10:20:57;;;;;;;2.33;2.00;;;45.70;22.90;;;;;;5034058;28;20391;-72
2022/09/01 10:23:26;;;;;;;1.57;1.47;;;45.40;24.50;;;;;;5032890;28;20445;-72
2022/09/01 10:26:02;;;;;;;1.90;1.80;;;45.80;24.00;;;;;;5033145;28;20388;-72
2022/09/01 10:28:30;;;;;;;1.87;1.70;;;46.60;23.90;;;;;;5034046;28;20384;-72
2022/09/01 10:30:58;;;;;;;2.00;1.90;;;47.30;24.00;;;;;;5033510;28;20904;-72
2022/09/01 10:33:24;;;;;;;1.97;1.87;;;48.10;23.30;;;;;;5033528;28;20404;-72
2022/09/01 10:35:54;;;;;;;2.10;2.00;;;48.50;23.50;;;;;;5048672;28;20826;-72
2022/09/01 10:38:28;;;;;;;2.07;1.97;;;48.10;23.20;;;;;;5033135;28;20530;-72
2022/09/01 10:41:17;;;;;;;1.80;1.70;;;47.30;23.60;;;;;;5032846;28;20778;-72
2022/09/01 10:43:46;;;;;;;2.43;2.23;;;47.80;24.10;;;;;;5032708;28;20441;-72
2022/09/01 10:46:18;;;;;;;1.93;1.83;;;48.50;23.20;;;;;;5033022;28;20393;-72
2022/09/01 10:48:46;;;;;;;2.10;1.90;;;49.10;23.10;;;;;;5033193;28;20418;-72
2022/09/01 10:51:12;;;;;;;1.90;1.80;;;48.50;22.30;;;;;;5033233;28;20432;-72
2022/09/01 10:53:58;;;;;;;2.03;1.93;;;47.30;23.30;;;;;;5032469;28;20484;-72
2022/09/01 10:56:47;;;;;;;1.80;1.70;;;47.30;22.90;;;;;;5032295;28;20702;-72
2022/09/01 10:59:22;;;;;;;2.00;1.90;;;47.90;22.80;;;;;;5032994;28;21001;-72
2022/09/01 11:01:49;;;;;;;2.47;2.27;;;48.00;21.70;;;;;;5031102;28;20430;-71
2022/09/01 11:04:19;;;;;;;2.10;1.90;;;49.00;21.60;;;;;;5032114;28;20493;-72
2022/09/01 11:07:00;;;;;;;1.80;1.70;;;48.90;21.40;;;;;;5031161;28;20596;-72
2022/09/01 11:09:30;;;;;;;2.17;1.90;;;49.10;22.70;;;;;;5030012;28;20369;-72
2022/09/01 11:12:15;;;;;;;2.37;2.00;;;49.10;22.60;;;;;;5031529;28;20409;-72
2022/09/01 11:14:57;;;;;;;2.00;1.90;;;50.00;22.80;;;;;;5029473;28;20400;-72
2022/09/01 11:17:30;;;;;;;2.37;2.27;;;50.40;21.90;;;;;;5032405;28;20454;-72
2022/09/01 11:20:09;;;;;;;2.27;2.07;;;50.80;21.40;;;;;;5032428;28;20410;-72
2022/09/01 11:22:43;;;;;;;2.50;2.30;;;51.10;21.20;;;;;;5032110;28;20775;-72
2022/09/01 11:25:48;;;;;;;2.50;2.30;;;51.50;21.50;;;;;;5032407;28;20449;-72
2022/09/01 11:28:14;;;;;;;2.80;2.60;;;51.70;20.90;;;;;;5032445;28;20417;-72
2022/09/01 11:30:54;;;;;;;2.70;2.60;;;51.90;21.30;;;;;;5032462;28;20397;-72
2022/09/01 11:33:47;;;;;;;2.80;2.70;;;52.70;20.80;;;;;;5030120;28;20667;-72
2022/09/01 11:36:35;;;;;;;2.63;2.43;;;53.20;21.10;;;;;;5031971;28;20970;-72
2022/09/01 11:39:20;;;;;;;2.20;2.10;;;52.50;20.80;;;;;;5013206;28;20404;-72
2022/09/01 11:41:46;;;;;;;2.10;1.90;;;49.90;20.70;;;;;;5013077;28;20431;-72
2022/09/01 11:44:28;;;;;;;2.00;1.90;;;47.60;21.80;;;;;;5012464;28;20479;-71
2022/09/01 11:47:00;;;;;;;2.07;1.97;;;45.70;21.60;;;;;;5021958;28;20185;-72
2022/09/01 11:49:38;;;;;;;1.87;1.77;;;45.00;22.40;;;;;;5031808;28;20391;-72
2022/09/01 11:52:05;;;;;;;2.30;2.10;;;45.70;23.40;;;;;;5032153;28;20429;-72
2022/09/01 11:54:40;;;;;;;2.00;1.90;;;46.60;23.80;;;;;;5031834;28;20790;-72
2022/09/01 11:57:27;;;;;;;3.00;2.00;;;47.70;22.50;;;;;;5031943;28;20484;-72
2022/09/01 11:59:54;;;;;;;2.87;2.00;;;48.60;22.30;;;;;;5031525;28;20772;-72
2022/09/01 12:02:32;;;;;;;2.77;2.60;;;49.80;22.40;;;;;;5031723;28;20823;-73
2022/09/01 12:05:00;;;;;;;2.43;2.30;;;50.30;21.50;;;;;;5031618;28;20418;-73
2022/09/01 12:07:46;;;;;;;2.50;2.37;;;50.50;21.80;;;;;;5032058;28;20418;-72
2022/09/01 12:10:34;;;;;;;2.63;2.43;;;51.20;20.80;;;;;;5031496;28;20957;-72
2022/09/01 12:13:03;;;;;;;2.70;2.60;;;51.50;21.90;;;;;;5031544;28;20414;-73
2022/09/01 12:15:29;;;;;;;3.87;3.57;;;51.60;21.20;;;;;;5031575;28;20406;-72
2022/09/01 12:18:13;;;;;;;3.10;2.90;;;52.40;21.40;;;;;;5031775;28;20827;-73
2022/09/01 12:20:39;;;;;;;3.43;3.23;;;52.90;21.10;;;;;;5031675;28;20262;-73
2022/09/01 12:23:35;;;;;;;3.13;3.00;;;53.30;21.00;;;;;;5047075;28;20483;-73
2022/09/01 12:26:22;;;;;;;2.43;2.33;;;52.20;20.20;;;;;;5035577;28;20803;-72
2022/09/01 12:28:48;;;;;;;2.23;2.00;;;49.80;20.50;;;;;;5036399;28;20422;-73
2022/09/01 12:31:18;;;;;;;2.17;1.97;;;46.80;21.40;;;;;;5037059;28;20413;-73
2022/09/01 12:33:45;;;;;;;2.20;2.03;;;44.60;22.40;;;;;;5036104;28;20878;-73
2022/09/01 12:36:22;;;;;;;2.40;2.13;;;42.50;23.70;;;;;;5035025;28;20500;-73
2022/09/01 12:38:48;;;;;;;2.10;1.90;;;40.70;25.30;;;;;;5035847;28;20764;-74
2022/09/01 12:41:33;;;;;;;2.23;1.67;;;39.10;26.30;;;;;;5036098;28;20377;-73
2022/09/01 12:44:29;;;;;;;1.93;1.80;;;39.20;27.10;;;;;;5035645;28;20508;-72
2022/09/01 12:46:57;;;;;;;1.90;1.80;;;40.70;27.10;;;;;;5035360;28;20410;-72
2022/09/01 12:49:25;;;;;;;1.87;1.77;;;42.10;25.60;;;;;;5035193;28;20476;-72
2022/09/01 12:52:17;;;;;;;2.20;2.00;;;43.20;25.40;;;;;;5035332;28;20396;-73
2022/09/01 12:54:44;;;;;;;2.00;1.90;;;44.00;24.70;;;;;;5035369;28;20399;-73
2022/09/01 12:57:26;;;;;;;2.43;2.23;;;44.30;23.70;;;;;;5035373;28;20427;-73
2022/09/01 13:00:11;;;;;;;2.40;2.10;;;45.40;23.90;;;;;;5035318;28;20402;-73
2022/09/01 13:02:42;;;;;;;2.83;2.13;;;46.60;23.00;;;;;;5035278;28;20440;-73
2022/09/01 13:05:28;;;;;;;2.20;2.10;;;47.20;22.50;;;;;;5035107;28;20405;-73
2022/09/01 13:08:02;;;;;;;1.77;1.67;;;46.80;21.70;;;;;;5035319;28;20381;-74
2022/09/01 13:10:33;;;;;;;2.40;2.30;;;46.40;22.40;;;;;;5034730;28;20389;-73